Time;durP1;ratioP1;P1;durP2;ratioP2;P2;SDS_P1;SDS_P2;PMS_P1;PMS_P2;Temp;Humidity;BMP_temperature;BMP_pressure;BME280_temperature;BME280_humidity;BME280_pressure;Samples;Min_cycle;Max_cycle;Signal;HPM_P1;HPM_P2
2021/06/12 00:01:30;;;;;;;9.45;6.82;;;24.10;65.80;;;;;;5201058;28;20060;-53
2021/06/12 00:04:03;;;;;;;11.95;6.28;;;24.00;65.70;;;;;;5197991;28;20049;-53
2021/06/12 00:06:36;;;;;;;7.85;6.50;;;24.00;65.70;;;;;;5202675;28;20052;-55
2021/06/12 00:09:09;;;;;;;12.63;7.72;;;24.00;65.60;;;;;;5194133;28;20053;-53
2021/06/12 00:11:41;;;;;;;10.02;6.88;;;24.00;65.50;;;;;;5199763;28;20067;-53
2021/06/12 00:14:14;;;;;;;11.60;7.10;;;24.00;65.50;;;;;;5205249;28;20056;-55
2021/06/12 00:16:47;;;;;;;11.48;6.20;;;24.00;65.30;;;;;;5205307;28;20060;-55
2021/06/12 00:19:19;;;;;;;15.47;6.97;;;24.00;65.50;;;;;;5204465;28;20437;-52
2021/06/12 00:21:52;;;;;;;7.75;6.38;;;24.00;65.40;;;;;;5202671;28;20049;-57
2021/06/12 00:24:24;;;;;;;6.90;6.20;;;24.00;65.50;;;;;;5201153;28;20060;-49
2021/06/12 00:26:57;;;;;;;9.32;6.22;;;24.00;65.50;;;;;;5199993;28;20057;-55
2021/06/12 00:29:30;;;;;;;7.03;6.13;;;24.00;65.60;;;;;;5184549;28;20041;-54
2021/06/12 00:32:07;;;;;;;8.48;6.35;;;24.00;65.50;;;;;;5199803;28;20053;-51
2021/06/12 00:34:39;;;;;;;8.73;6.57;;;24.00;65.50;;;;;;5201169;28;20056;-54
2021/06/12 00:37:12;;;;;;;8.60;6.38;;;24.00;65.50;;;;;;5207255;28;20209;-57
2021/06/12 00:39:44;;;;;;;7.20;6.03;;;24.00;65.50;;;;;;5196611;28;20056;-58
2021/06/12 00:42:18;;;;;;;9.15;6.35;;;24.00;65.50;;;;;;5206724;28;20056;-53
2021/06/12 00:44:50;;;;;;;6.35;5.57;;;23.90;65.40;;;;;;5198480;28;20449;-52
2021/06/12 00:47:23;;;;;;;6.90;6.20;;;24.00;65.50;;;;;;5204425;28;20053;-58
2021/06/12 00:49:56;;;;;;;7.20;6.05;;;24.00;65.40;;;;;;5202515;28;20064;-57
2021/06/12 00:52:28;;;;;;;9.60;6.28;;;24.00;65.40;;;;;;5208228;28;20053;-49
2021/06/12 00:55:01;;;;;;;7.00;6.30;;;23.90;65.40;;;;;;5202686;28;20064;-56
2021/06/12 00:57:35;;;;;;;8.38;5.35;;;24.00;65.50;;;;;;5204205;28;20042;-55
2021/06/12 01:00:12;;;;;;;6.78;5.65;;;24.00;65.40;;;;;;5202353;28;20049;-59
2021/06/12 01:02:46;;;;;;;6.32;5.72;;;24.00;65.40;;;;;;5203355;28;20060;-57
2021/06/12 01:05:20;;;;;;;;;;;24.00;65.40;;;;;;5202002;28;20041;-56
2021/06/12 01:07:53;;;;;;;;;;;23.90;65.30;;;;;;5195523;28;19935;-58
2021/06/12 01:10:25;;;;;;;7.95;5.90;;;23.90;65.30;;;;;;5201199;28;19932;-50
2021/06/12 01:13:19;;;;;;;7.87;5.90;;;23.90;65.40;;;;;;5203982;28;20394;-54
2021/06/12 01:16:01;;;;;;;5.90;5.15;;;23.80;65.30;;;;;;5197471;28;20573;-59
2021/06/12 01:18:37;;;;;;;7.05;5.50;;;23.90;65.40;;;;;;5211924;28;20064;-55
2021/06/12 01:21:24;;;;;;;9.63;5.13;;;23.90;65.40;;;;;;5201702;28;20041;-50
2021/06/12 01:24:17;;;;;;;7.20;5.68;;;23.90;65.40;;;;;;5195890;28;20056;-56
2021/06/12 01:27:04;;;;;;;8.02;6.05;;;23.90;65.20;;;;;;5200478;28;20067;-54
2021/06/12 01:29:55;;;;;;;8.15;5.53;;;23.90;65.30;;;;;;5204967;28;20053;-52
2021/06/12 01:32:31;;;;;;;7.15;5.18;;;23.90;65.50;;;;;;5202942;28;20049;-55
2021/06/12 01:35:33;;;;;;;9.93;5.70;;;23.90;65.50;;;;;;5197351;28;20037;-56
2021/06/12 01:38:07;;;;;;;8.13;6.13;;;23.90;65.60;;;;;;5200174;28;21038;-58
2021/06/12 01:40:42;;;;;;;7.43;5.55;;;23.90;65.70;;;;;;5199175;28;20091;-53
2021/06/12 01:43:18;;;;;;;5.70;5.18;;;23.90;65.60;;;;;;5209440;28;20045;-56
2021/06/12 01:45:51;;;;;;;6.90;5.45;;;23.90;65.70;;;;;;5205626;28;20065;-54
2021/06/12 01:48:24;;;;;;;11.32;5.97;;;23.90;65.70;;;;;;5183544;28;20060;-54
2021/06/12 01:51:03;;;;;;;7.57;5.75;;;23.90;65.80;;;;;;5200931;28;20057;-53
2021/06/12 01:53:37;;;;;;;8.57;5.20;;;23.90;65.80;;;;;;5179873;28;20061;-54
2021/06/12 01:56:12;;;;;;;6.65;5.43;;;23.90;65.80;;;;;;5199053;28;20045;-56
2021/06/12 01:58:45;;;;;;;6.32;5.13;;;23.90;65.80;;;;;;5198284;28;20421;-56
2021/06/12 02:01:18;;;;;;;;;;;23.90;65.80;;;;;;5214349;28;20045;-58
2021/06/12 02:03:52;;;;;;;14.45;5.90;;;23.80;65.80;;;;;;5216758;28;19924;-55
2021/06/12 02:06:26;;;;;;;6.22;5.22;;;23.80;65.80;;;;;;5205378;28;20061;-55
2021/06/12 02:09:00;;;;;;;8.93;5.80;;;23.90;65.80;;;;;;5192692;28;20525;-56
2021/06/12 02:11:33;;;;;;;6.57;5.28;;;23.90;65.90;;;;;;5198541;28;20064;-58
2021/06/12 02:14:08;;;;;;;5.88;5.15;;;23.90;65.80;;;;;;5203115;28;22452;-52
2021/06/12 02:16:41;;;;;;;6.57;5.30;;;23.90;65.90;;;;;;5199966;28;20063;-59
2021/06/12 02:19:14;;;;;;;8.30;5.05;;;23.90;65.90;;;;;;5204556;28;20048;-59
2021/06/12 02:21:49;;;;;;;5.90;5.20;;;23.90;65.90;;;;;;5243585;28;20063;-54
2021/06/12 02:24:22;;;;;;;5.05;4.65;;;23.90;65.80;;;;;;5242137;28;20041;-55
2021/06/12 02:26:56;;;;;;;8.23;5.25;;;23.90;65.80;;;;;;5242408;28;20063;-53
2021/06/12 02:29:29;;;;;;;7.68;5.47;;;23.90;65.80;;;;;;5241969;28;20051;-51
2021/06/12 02:32:07;;;;;;;5.80;5.20;;;23.90;65.80;;;;;;5245037;28;20071;-53
2021/06/12 02:34:40;;;;;;;7.45;5.30;;;23.90;65.80;;;;;;5241433;28;20539;-56
2021/06/12 02:37:12;;;;;;;7.18;5.47;;;23.90;65.80;;;;;;5245972;28;20044;-56
2021/06/12 02:39:45;;;;;;;6.75;5.65;;;23.80;65.80;;;;;;5241852;28;20056;-50
2021/06/12 02:42:30;;;;;;;8.10;4.82;;;23.90;65.80;;;;;;5236976;28;20043;-57
2021/06/12 02:45:08;;;;;;;7.88;4.90;;;23.80;65.80;;;;;;5247082;28;20610;-59
2021/06/12 02:47:51;;;;;;;5.53;4.97;;;23.80;65.70;;;;;;5242741;28;20063;-57
2021/06/12 02:50:28;;;;;;;7.15;5.57;;;23.90;65.70;;;;;;5244421;28;20052;-54
2021/06/12 02:53:06;;;;;;;7.90;5.55;;;23.90;65.80;;;;;;5236315;28;20798;-56
2021/06/12 02:55:49;;;;;;;10.15;5.53;;;23.90;65.80;;;;;;5246657;28;20047;-53
2021/06/12 02:58:24;;;;;;;6.25;5.25;;;23.80;65.70;;;;;;5245528;28;20077;-54
2021/06/12 03:00:58;;;;;;;8.50;5.47;;;23.90;65.80;;;;;;5241435;28;20048;-54
2021/06/12 03:03:33;;;;;;;9.77;5.35;;;23.90;65.80;;;;;;5246474;28;20052;-55
2021/06/12 03:06:08;;;;;;;9.23;5.53;;;23.90;65.80;;;;;;5241852;28;20060;-53
2021/06/12 03:08:46;;;;;;;7.78;5.20;;;23.80;65.70;;;;;;5242532;28;22505;-52
2021/06/12 03:11:21;;;;;;;9.63;5.30;;;23.90;65.70;;;;;;5242400;28;20135;-52
2021/06/12 03:13:56;;;;;;;8.40;5.22;;;23.90;65.70;;;;;;5238960;28;20056;-57
2021/06/12 03:16:29;;;;;;;5.75;4.95;;;23.80;65.60;;;;;;5243287;28;20497;-50
2021/06/12 03:19:02;;;;;;;6.82;5.45;;;23.90;65.60;;;;;;5244683;28;20075;-53
2021/06/12 03:21:36;;;;;;;7.70;4.82;;;23.80;65.40;;;;;;5242449;28;20051;-55
2021/06/12 03:24:10;;;;;;;7.32;5.03;;;23.80;65.30;;;;;;5237945;28;20072;-56
2021/06/12 03:26:44;;;;;;;7.57;4.95;;;23.80;65.40;;;;;;5245134;28;20066;-57
2021/06/12 03:29:16;;;;;;;5.47;4.90;;;23.80;65.30;;;;;;5236770;28;20055;-56
2021/06/12 03:31:49;;;;;;;8.45;4.75;;;23.80;65.30;;;;;;5237569;28;20059;-58
2021/06/12 03:34:23;;;;;;;5.30;4.80;;;23.80;65.20;;;;;;5243194;28;20043;-54
2021/06/12 03:36:56;;;;;;;5.93;5.15;;;23.80;65.90;;;;;;5234897;28;20068;-58
2021/06/12 03:39:29;;;;;;;;;;;23.80;65.30;;;;;;5224193;28;20056;-57
2021/06/12 03:42:01;;;;;;;6.15;5.45;;;23.80;65.30;;;;;;5225188;28;19951;-56
2021/06/12 03:44:36;;;;;;;6.50;5.03;;;23.80;65.40;;;;;;5242143;28;20051;-54
2021/06/12 03:47:10;;;;;;;6.75;5.07;;;23.80;65.50;;;;;;5240174;28;20301;-54
2021/06/12 03:49:42;;;;;;;;;;;23.80;65.50;;;;;;5223681;28;20419;-56
2021/06/12 03:52:15;;;;;;;6.13;5.13;;;23.70;65.40;;;;;;5242874;28;19924;-53
2021/06/12 03:54:48;;;;;;;9.60;4.97;;;23.70;65.40;;;;;;5225425;28;20078;-56
2021/06/12 03:57:21;;;;;;;6.70;4.80;;;23.80;65.60;;;;;;5243221;28;21038;-55
2021/06/12 03:59:54;;;;;;;7.15;5.13;;;23.70;65.50;;;;;;5245449;28;20522;-57
2021/06/12 04:02:27;;;;;;;7.82;4.93;;;23.80;65.60;;;;;;5243388;28;20799;-53
2021/06/12 04:05:00;;;;;;;7.07;5.13;;;23.80;66.20;;;;;;5246298;28;20056;-54
2021/06/12 04:07:33;;;;;;;5.97;4.95;;;23.80;65.50;;;;;;5230194;28;21379;-53
2021/06/12 04:10:07;;;;;;;8.55;5.78;;;23.80;65.60;;;;;;5213485;28;20057;-54
2021/06/12 04:12:40;;;;;;;5.93;5.20;;;23.80;65.50;;;;;;5224780;28;20048;-54
2021/06/12 04:15:13;;;;;;;8.02;4.90;;;23.80;65.60;;;;;;5221947;28;20055;-54
2021/06/12 04:17:47;;;;;;;9.75;5.00;;;23.80;65.50;;;;;;5248696;28;20991;-58
2021/06/12 04:20:19;;;;;;;7.20;5.13;;;23.80;65.50;;;;;;5227124;28;20520;-54
2021/06/12 04:22:52;;;;;;;7.78;5.07;;;23.80;65.40;;;;;;5222170;28;20343;-55
2021/06/12 04:25:25;;;;;;;6.15;4.78;;;23.80;65.40;;;;;;5234331;28;20049;-55
2021/06/12 04:27:57;;;;;;;8.85;5.40;;;23.80;65.40;;;;;;5235540;28;20057;-56
2021/06/12 04:30:30;;;;;;;5.53;4.80;;;23.80;65.40;;;;;;5230535;28;20044;-54
2021/06/12 04:33:04;;;;;;;8.07;4.65;;;23.80;65.40;;;;;;5241146;28;20563;-54
2021/06/12 04:35:37;;;;;;;9.48;5.40;;;23.80;65.50;;;;;;5237708;28;20060;-52
2021/06/12 04:38:09;;;;;;;6.30;4.53;;;23.80;65.50;;;;;;5236557;28;20048;-51
2021/06/12 04:40:42;;;;;;;6.15;4.85;;;23.80;65.50;;;;;;5230968;28;20249;-56
2021/06/12 04:43:15;;;;;;;8.85;4.63;;;23.80;65.50;;;;;;5241715;28;20255;-56
2021/06/12 04:45:48;;;;;;;7.47;5.30;;;23.80;65.50;;;;;;5233920;28;20067;-54
2021/06/12 04:48:20;;;;;;;7.72;5.25;;;23.80;65.50;;;;;;5238557;28;20044;-55
2021/06/12 04:50:53;;;;;;;7.10;5.22;;;23.80;65.60;;;;;;5235339;28;20307;-59
2021/06/12 04:53:30;;;;;;;13.27;5.73;;;23.80;65.70;;;;;;5232818;28;20055;-55
2021/06/12 04:56:03;;;;;;;10.38;5.30;;;23.80;65.70;;;;;;5236379;28;20309;-57
2021/06/12 04:58:35;;;;;;;6.97;4.93;;;23.80;65.60;;;;;;5239916;28;20047;-56
2021/06/12 05:01:08;;;;;;;8.35;4.70;;;23.80;65.60;;;;;;5237939;28;20325;-55
2021/06/12 05:03:40;;;;;;;5.57;4.83;;;23.80;65.60;;;;;;5238523;28;20048;-54
2021/06/12 05:06:13;;;;;;;8.40;4.53;;;23.80;65.70;;;;;;5235475;28;20066;-55
2021/06/12 05:08:45;;;;;;;6.13;4.85;;;23.80;65.70;;;;;;5243530;28;20067;-56
2021/06/12 05:11:18;;;;;;;8.80;4.43;;;23.90;65.70;;;;;;5232356;28;20059;-52
2021/06/12 05:13:50;;;;;;;8.80;5.00;;;23.90;65.80;;;;;;5241135;28;20064;-50
2021/06/12 05:16:23;;;;;;;7.03;4.30;;;23.90;66.00;;;;;;5218911;28;20044;-53
2021/06/12 05:18:56;;;;;;;9.05;4.60;;;23.90;65.90;;;;;;5223791;28;20768;-56
2021/06/12 05:21:31;;;;;;;6.18;4.55;;;23.80;65.90;;;;;;5221199;28;20497;-54
2021/06/12 05:24:05;;;;;;;9.50;4.88;;;23.80;65.90;;;;;;5244941;28;20433;-54
2021/06/12 05:26:41;;;;;;;6.18;4.75;;;23.90;66.00;;;;;;5243786;28;20063;-58
2021/06/12 05:29:15;;;;;;;8.48;4.72;;;23.80;66.00;;;;;;5236153;28;20075;-57
2021/06/12 05:31:48;;;;;;;6.60;4.60;;;23.90;66.10;;;;;;5231956;28;20739;-59
2021/06/12 05:34:21;;;;;;;9.73;4.68;;;23.90;66.00;;;;;;5224210;28;20052;-59
2021/06/12 05:36:53;;;;;;;7.83;4.60;;;23.90;66.10;;;;;;5223439;28;20456;-50
2021/06/12 05:39:26;;;;;;;10.10;4.37;;;23.80;66.10;;;;;;5237722;28;20316;-56
2021/06/12 05:41:59;;;;;;;7.47;5.18;;;23.90;66.10;;;;;;5234114;28;20181;-56
2021/06/12 05:44:32;;;;;;;7.45;4.38;;;23.90;66.10;;;;;;5223319;28;20067;-53
2021/06/12 05:47:04;;;;;;;9.67;4.83;;;23.90;66.20;;;;;;5236113;28;20057;-59
2021/06/12 05:49:37;;;;;;;8.35;4.65;;;23.80;66.20;;;;;;5235045;28;20051;-49
2021/06/12 05:52:10;;;;;;;7.00;4.78;;;23.80;66.20;;;;;;5234726;28;20060;-59
2021/06/12 05:54:42;;;;;;;6.00;4.60;;;23.90;66.20;;;;;;5240035;28;20050;-57
2021/06/12 05:57:15;;;;;;;6.97;4.80;;;23.90;66.20;;;;;;5235097;28;20056;-57
2021/06/12 05:59:47;;;;;;;8.35;4.75;;;23.90;66.20;;;;;;5235319;28;20048;-53
2021/06/12 06:02:20;;;;;;;8.70;5.13;;;23.90;66.20;;;;;;5232579;28;20055;-56
2021/06/12 06:04:53;;;;;;;5.80;4.50;;;23.90;66.20;;;;;;5227638;28;20394;-54
2021/06/12 06:07:25;;;;;;;6.07;4.68;;;23.80;66.20;;;;;;5237090;28;20310;-56
2021/06/12 06:10:01;;;;;;;4.80;4.28;;;23.90;66.30;;;;;;5234730;28;20067;-57
2021/06/12 06:12:35;;;;;;;8.37;4.40;;;23.80;66.20;;;;;;5232701;28;20828;-54
2021/06/12 06:15:10;;;;;;;;;;;23.90;66.50;;;;;;5230187;28;20488;-54
2021/06/12 06:17:43;;;;;;;10.40;5.18;;;23.80;66.70;;;;;;5247435;28;19923;-54
2021/06/12 06:20:16;;;;;;;10.45;5.18;;;23.80;66.90;;;;;;5233927;28;20563;-56
2021/06/12 06:22:48;;;;;;;7.07;4.70;;;23.90;67.00;;;;;;5210706;28;20882;-55
2021/06/12 06:25:23;;;;;;;7.70;4.97;;;23.90;67.10;;;;;;5228791;28;20032;-61
2021/06/12 06:27:55;;;;;;;11.75;5.28;;;23.90;66.80;;;;;;5214420;28;20512;-62
2021/06/12 06:30:28;;;;;;;11.23;5.53;;;23.90;66.40;;;;;;5197300;28;20041;-60
2021/06/12 06:33:01;;;;;;;9.00;4.60;;;23.90;66.10;;;;;;5217618;28;20408;-60
2021/06/12 06:35:34;;;;;;;;;;;24.00;65.90;;;;;;5220338;28;20524;-59
2021/06/12 06:38:07;;;;;;;10.35;5.18;;;23.90;65.60;;;;;;5217945;28;19931;-62
2021/06/12 06:40:39;;;;;;;9.13;5.20;;;24.00;65.60;;;;;;5215232;28;20048;-57
2021/06/12 06:43:13;;;;;;;7.13;4.95;;;24.10;65.40;;;;;;5220891;28;20056;-59
2021/06/12 06:45:46;;;;;;;7.55;4.60;;;24.10;65.10;;;;;;5193328;28;20386;-59
2021/06/12 06:48:19;;;;;;;7.93;5.43;;;24.20;65.20;;;;;;5213507;28;20468;-59
2021/06/12 06:50:52;;;;;;;9.20;4.70;;;24.20;64.60;;;;;;5212842;28;20044;-62
2021/06/12 06:53:25;;;;;;;11.07;5.05;;;24.30;64.50;;;;;;5213235;28;20298;-61
2021/06/12 06:55:59;;;;;;;8.93;5.22;;;24.30;64.30;;;;;;5196808;28;20052;-59
2021/06/12 06:58:31;;;;;;;;;;;24.40;64.20;;;;;;5217455;28;20071;-58
2021/06/12 07:01:07;;;;;;;5.68;4.60;;;24.30;64.00;;;;;;5212338;28;19928;-58
2021/06/12 07:03:39;;;;;;;8.55;4.65;;;24.40;64.00;;;;;;5192467;28;20638;-61
2021/06/12 07:06:17;;;;;;;9.77;5.15;;;24.50;63.90;;;;;;5212687;28;20059;-60
2021/06/12 07:08:50;;;;;;;8.20;4.40;;;24.50;63.70;;;;;;5216174;28;20048;-62
2021/06/12 07:11:22;;;;;;;8.73;5.32;;;24.60;63.60;;;;;;5218101;28;20092;-61
2021/06/12 07:13:55;;;;;;;6.72;4.88;;;24.60;63.40;;;;;;5213176;28;20051;-57
2021/06/12 07:16:28;;;;;;;7.27;4.93;;;24.60;63.20;;;;;;5219634;28;21040;-56
2021/06/12 07:19:01;;;;;;;10.43;4.78;;;24.70;63.20;;;;;;5221040;28;20777;-59
2021/06/12 07:21:34;;;;;;;8.55;5.50;;;24.70;63.10;;;;;;5213303;28;20059;-62
2021/06/12 07:24:07;;;;;;;12.25;5.15;;;24.70;63.00;;;;;;5217399;28;20067;-59
2021/06/12 07:26:42;;;;;;;13.27;4.80;;;24.80;62.90;;;;;;5223514;28;20324;-57
2021/06/12 07:29:14;;;;;;;10.07;4.50;;;24.80;62.80;;;;;;5222838;28;20052;-54
2021/06/12 07:31:47;;;;;;;8.53;5.33;;;25.00;62.70;;;;;;5201356;28;20052;-56
2021/06/12 07:34:20;;;;;;;10.13;5.00;;;25.00;62.60;;;;;;5224839;28;20301;-60
2021/06/12 07:36:53;;;;;;;6.07;4.37;;;25.00;62.60;;;;;;5222004;28;20374;-59
2021/06/12 07:39:29;;;;;;;13.25;4.95;;;25.10;62.60;;;;;;5218772;28;20431;-58
2021/06/12 07:42:01;;;;;;;13.55;4.35;;;25.10;62.50;;;;;;5215360;28;20068;-59
2021/06/12 07:44:34;;;;;;;6.13;4.53;;;25.20;62.60;;;;;;5219789;28;20071;-55
2021/06/12 07:47:07;;;;;;;5.20;4.70;;;25.10;62.50;;;;;;5221279;28;20307;-60
2021/06/12 07:49:39;;;;;;;11.97;4.80;;;25.20;62.50;;;;;;5221141;28;20540;-55
2021/06/12 07:52:12;;;;;;;6.00;5.30;;;25.20;62.60;;;;;;5219263;28;20471;-61
2021/06/12 07:54:44;;;;;;;8.18;5.07;;;25.20;62.40;;;;;;5215554;28;20063;-62
2021/06/12 07:57:17;;;;;;;14.30;4.90;;;25.30;62.40;;;;;;5213734;28;20041;-62
2021/06/12 07:59:50;;;;;;;6.60;4.53;;;25.30;62.30;;;;;;5210645;28;20287;-60
2021/06/12 08:02:22;;;;;;;7.18;4.55;;;25.30;62.30;;;;;;5189643;28;20279;-62
2021/06/12 08:04:55;;;;;;;11.68;4.97;;;25.30;62.40;;;;;;5208680;28;20048;-59
2021/06/12 08:07:27;;;;;;;11.85;4.95;;;25.30;62.40;;;;;;5203058;28;20840;-58
2021/06/12 08:10:02;;;;;;;6.03;4.57;;;25.40;62.50;;;;;;5212531;28;20836;-57
2021/06/12 08:12:36;;;;;;;6.18;4.40;;;25.30;62.40;;;;;;5200291;28;20040;-57
2021/06/12 08:15:09;;;;;;;9.05;4.20;;;25.40;62.50;;;;;;5194503;28;20052;-58
2021/06/12 08:17:43;;;;;;;7.65;4.93;;;25.30;62.40;;;;;;5212824;28;20044;-59
2021/06/12 08:20:17;;;;;;;7.55;5.25;;;25.40;62.60;;;;;;5216437;28;20419;-57
2021/06/12 08:22:50;;;;;;;12.35;4.75;;;25.40;62.50;;;;;;5212381;28;20048;-60
2021/06/12 08:25:23;;;;;;;6.38;4.22;;;25.40;62.50;;;;;;5215965;28;20044;-61
2021/06/12 08:28:02;;;;;;;8.70;4.33;;;25.40;62.40;;;;;;5217833;28;20090;-61
2021/06/12 08:30:36;;;;;;;6.70;4.95;;;25.40;62.40;;;;;;5215546;28;20051;-58
2021/06/12 08:33:09;;;;;;;6.45;4.72;;;25.40;62.40;;;;;;5212306;28;20601;-54
2021/06/12 08:35:41;;;;;;;9.25;4.80;;;25.40;62.40;;;;;;5216184;28;20052;-59
2021/06/12 08:38:14;;;;;;;6.18;5.05;;;25.40;62.30;;;;;;5219602;28;20051;-59
2021/06/12 08:40:48;;;;;;;6.90;4.73;;;25.50;62.40;;;;;;5217882;28;20503;-58
2021/06/12 08:43:25;;;;;;;8.18;4.80;;;25.50;62.30;;;;;;5216471;28;20512;-59
2021/06/12 08:45:59;;;;;;;5.20;4.70;;;25.50;62.30;;;;;;5213809;28;20062;-58
2021/06/12 08:48:33;;;;;;;5.82;4.57;;;25.50;62.20;;;;;;5201369;28;20063;-58
2021/06/12 08:51:06;;;;;;;9.75;4.90;;;25.50;62.20;;;;;;5198290;28;20048;-58
2021/06/12 08:53:39;;;;;;;7.15;4.68;;;25.50;62.20;;;;;;5208770;28;20066;-61
2021/06/12 08:56:12;;;;;;;7.60;4.80;;;25.60;62.20;;;;;;5194293;28;20350;-62
2021/06/12 08:58:45;;;;;;;8.95;4.45;;;25.60;62.20;;;;;;5194451;28;20048;-58
2021/06/12 09:01:24;;;;;;;16.05;4.63;;;25.60;62.20;;;;;;5197942;28;20041;-56
2021/06/12 09:03:57;;;;;;;23.02;5.53;;;25.60;62.20;;;;;;5199357;28;20044;-63
2021/06/12 09:06:29;;;;;;;9.50;4.78;;;25.70;62.30;;;;;;5201075;28;20056;-57
2021/06/12 09:09:07;;;;;;;10.18;4.63;;;25.70;62.00;;;;;;5218026;28;20051;-58
2021/06/12 09:11:40;;;;;;;16.63;4.40;;;25.70;61.90;;;;;;5216356;28;20040;-57
2021/06/12 09:14:14;;;;;;;17.92;5.13;;;25.80;62.00;;;;;;5221900;28;20045;-58
2021/06/12 09:16:47;;;;;;;13.40;5.18;;;25.80;61.90;;;;;;5217401;28;20516;-54
2021/06/12 09:19:21;;;;;;;12.75;4.95;;;25.80;61.90;;;;;;5223035;28;20041;-64
2021/06/12 09:21:59;;;;;;;11.77;4.32;;;25.80;61.70;;;;;;5206379;28;20595;-60
2021/06/12 09:24:45;;;;;;;11.93;5.38;;;25.90;61.70;;;;;;5197623;28;20040;-54
2021/06/12 09:27:18;;;;;;;9.43;5.18;;;25.90;61.60;;;;;;5216777;28;22560;-58
2021/06/12 09:29:52;;;;;;;7.47;4.15;;;25.90;61.70;;;;;;5214949;28;25040;-61
2021/06/12 09:32:28;;;;;;;6.55;4.03;;;25.90;61.60;;;;;;5196126;28;20353;-55
2021/06/12 09:35:07;;;;;;;10.40;4.68;;;25.90;61.60;;;;;;5199461;28;20570;-57
2021/06/12 09:37:40;;;;;;;8.48;4.60;;;25.90;61.60;;;;;;5211097;28;20056;-61
2021/06/12 09:40:15;;;;;;;19.25;5.28;;;25.90;61.60;;;;;;5207206;28;20540;-58
2021/06/12 09:42:51;;;;;;;7.45;4.80;;;25.90;61.50;;;;;;5214557;28;20059;-59
2021/06/12 09:45:25;;;;;;;6.10;4.95;;;25.90;61.40;;;;;;5207574;28;20055;-59
2021/06/12 09:48:17;;;;;;;5.82;4.45;;;25.90;61.40;;;;;;5210957;28;20440;-57
2021/06/12 09:51:10;;;;;;;9.05;4.50;;;25.80;61.10;;;;;;5200515;28;20058;-61
2021/06/12 09:53:50;;;;;;;15.73;6.28;;;25.80;61.20;;;;;;5200650;28;20544;-60
2021/06/12 09:56:24;;;;;;;8.75;5.10;;;25.80;61.20;;;;;;5180417;28;20057;-59
2021/06/12 09:58:58;;;;;;;12.70;5.45;;;25.90;61.10;;;;;;5207289;28;20036;-59
2021/06/12 10:01:32;;;;;;;20.30;5.80;;;25.90;61.20;;;;;;5195067;28;20040;-62
2021/06/12 10:04:13;;;;;;;23.13;6.32;;;25.80;61.20;;;;;;5199184;28;20060;-61
2021/06/12 10:06:45;;;;;;;17.48;5.90;;;25.80;61.20;;;;;;5201194;28;20567;-60
2021/06/12 10:09:18;;;;;;;17.23;5.70;;;25.80;61.30;;;;;;5211965;28;20064;-62
2021/06/12 10:11:52;;;;;;;20.90;6.10;;;25.90;61.50;;;;;;5201178;28;20066;-62
2021/06/12 10:14:25;;;;;;;13.77;5.55;;;25.90;61.50;;;;;;5196361;28;20372;-62
2021/06/12 10:16:57;;;;;;;21.87;6.40;;;25.90;61.60;;;;;;5196790;28;20522;-59
2021/06/12 10:19:32;;;;;;;13.80;5.80;;;25.80;61.60;;;;;;5182516;28;20618;-56
2021/06/12 10:22:05;;;;;;;15.65;5.88;;;25.80;61.60;;;;;;5206653;28;20052;-60
2021/06/12 10:24:39;;;;;;;19.42;6.25;;;25.80;61.60;;;;;;5194437;28;20118;-62
2021/06/12 10:27:14;;;;;;;18.80;6.75;;;25.80;61.80;;;;;;5191467;28;20055;-62
2021/06/12 10:29:47;;;;;;;27.85;6.55;;;25.80;61.80;;;;;;5191778;28;20666;-60
2021/06/12 10:32:20;;;;;;;22.40;6.05;;;25.90;61.80;;;;;;5201415;28;20719;-59
2021/06/12 10:34:53;;;;;;;22.83;7.57;;;25.90;61.70;;;;;;5197412;28;20064;-57
2021/06/12 10:37:26;;;;;;;22.52;7.70;;;25.90;61.70;;;;;;5213551;28;20059;-59
2021/06/12 10:40:04;;;;;;;16.67;6.72;;;25.90;61.50;;;;;;5214074;28;20052;-61
2021/06/12 10:42:39;;;;;;;18.67;6.63;;;25.90;61.40;;;;;;5217450;28;20048;-53
2021/06/12 10:45:13;;;;;;;20.05;6.75;;;25.90;61.40;;;;;;5215220;28;20049;-58
2021/06/12 10:47:46;;;;;;;21.33;7.07;;;25.90;61.30;;;;;;5215413;28;20618;-61
2021/06/12 10:50:30;;;;;;;20.23;7.63;;;26.00;61.30;;;;;;5220726;28;20051;-55
2021/06/12 10:53:33;;;;;;;16.20;6.85;;;26.00;61.30;;;;;;5220089;28;20748;-58
2021/06/12 10:56:07;;;;;;;13.40;6.38;;;26.00;61.20;;;;;;5216558;28;20040;-56
2021/06/12 10:58:48;;;;;;;11.40;5.95;;;26.00;61.30;;;;;;5219615;28;20048;-60
2021/06/12 11:01:23;;;;;;;19.20;6.43;;;26.00;61.30;;;;;;5218549;28;20056;-61
2021/06/12 11:06:40;;;;;;;17.73;6.57;;;26.00;61.30;;;;;;5216436;28;20040;-56
2021/06/12 11:09:19;;;;;;;19.30;6.45;;;26.00;61.40;;;;;;5219698;28;20094;-61
2021/06/12 11:11:54;;;;;;;15.43;5.93;;;26.00;61.40;;;;;;5220575;28;20586;-56
2021/06/12 11:14:28;;;;;;;17.00;6.30;;;26.00;61.40;;;;;;5218017;28;20567;-57
2021/06/12 11:19:47;;;;;;;17.40;6.00;;;26.00;61.50;;;;;;5219173;28;20355;-60
2021/06/12 11:22:33;;;;;;;18.45;6.35;;;25.90;61.40;;;;;;5187583;28;20638;-61
2021/06/12 11:25:09;;;;;;;12.38;5.30;;;25.90;61.50;;;;;;5193730;28;20075;-58
2021/06/12 11:27:53;;;;;;;13.32;5.93;;;25.90;61.40;;;;;;5207669;28;20772;-61
2021/06/12 11:30:26;;;;;;;12.88;6.00;;;26.00;61.40;;;;;;5199576;28;20059;-57
2021/06/12 11:33:02;;;;;;;;;;;25.90;61.30;;;;;;5198709;28;20040;-58
2021/06/12 11:35:41;;;;;;;11.85;5.57;;;25.90;61.30;;;;;;5201610;28;19928;-62
2021/06/12 11:38:19;;;;;;;15.63;6.13;;;25.90;61.30;;;;;;5205095;28;20055;-60
2021/06/12 11:41:05;;;;;;;12.82;5.80;;;25.90;61.30;;;;;;5187949;28;20359;-60
2021/06/12 11:43:49;;;;;;;18.55;5.93;;;25.90;61.20;;;;;;5195347;28;20049;-59
2021/06/12 11:46:32;;;;;;;14.30;5.32;;;25.90;61.20;;;;;;5179357;28;20579;-60
2021/06/12 11:49:07;;;;;;;19.33;6.80;;;25.90;61.20;;;;;;5188262;28;20059;-60
2021/06/12 11:51:45;;;;;;;18.27;6.75;;;25.90;61.20;;;;;;5177067;28;20044;-57
2021/06/12 11:54:27;;;;;;;13.82;6.38;;;25.90;61.20;;;;;;5190712;28;20617;-59
2021/06/12 11:57:03;;;;;;;11.15;6.32;;;25.90;61.20;;;;;;5196670;28;20055;-61
2021/06/12 11:59:36;;;;;;;11.65;5.88;;;25.80;61.10;;;;;;5187567;28;20052;-59
2021/06/12 12:02:09;;;;;;;9.93;6.50;;;25.90;61.10;;;;;;5202031;28;20613;-59
2021/06/12 12:04:46;;;;;;;15.47;5.70;;;25.90;61.00;;;;;;5204187;28;20295;-61
2021/06/12 12:07:19;;;;;;;12.07;6.07;;;25.90;60.90;;;;;;5191110;28;20055;-62
2021/06/12 12:09:53;;;;;;;13.43;6.57;;;26.00;60.80;;;;;;5212704;28;20047;-59
2021/06/12 12:12:33;;;;;;;13.13;6.75;;;26.00;60.60;;;;;;5210348;28;20048;-56
2021/06/12 12:15:07;;;;;;;11.43;6.82;;;26.00;60.60;;;;;;5211959;28;20819;-58
2021/06/12 12:17:39;;;;;;;16.27;6.15;;;26.10;61.20;;;;;;5212655;28;20516;-60
2021/06/12 12:20:13;;;;;;;;;;;26.10;60.50;;;;;;5217420;28;20048;-57
2021/06/12 12:22:48;;;;;;;13.48;6.47;;;26.10;60.60;;;;;;5212283;28;20328;-60
2021/06/12 12:25:28;;;;;;;13.10;6.07;;;26.10;60.60;;;;;;5215668;28;20060;-62
2021/06/12 12:28:08;;;;;;;15.27;6.63;;;26.20;60.60;;;;;;5208213;28;20063;-58
2021/06/12 12:30:42;;;;;;;9.80;5.95;;;26.20;60.60;;;;;;5210133;28;21134;-61
2021/06/12 12:33:19;;;;;;;8.98;5.63;;;26.20;60.60;;;;;;5195341;28;20051;-62
2021/06/12 12:36:01;;;;;;;12.07;6.93;;;26.20;60.70;;;;;;5201090;28;20711;-60
2021/06/12 12:38:34;;;;;;;11.52;6.32;;;26.20;60.60;;;;;;5199761;28;20163;-59
2021/06/12 12:41:09;;;;;;;16.40;6.30;;;26.20;60.60;;;;;;5198851;28;20048;-59
2021/06/12 12:43:41;;;;;;;29.00;7.18;;;26.10;60.50;;;;;;5199382;28;20058;-57
2021/06/12 12:46:14;;;;;;;14.98;6.10;;;26.20;60.50;;;;;;5199316;28;20036;-61
2021/06/12 12:48:46;;;;;;;17.33;6.53;;;26.10;60.40;;;;;;5209444;28;20060;-61
2021/06/12 12:51:27;;;;;;;16.63;6.55;;;26.20;60.50;;;;;;5197623;28;20682;-58
2021/06/12 12:54:14;;;;;;;22.65;6.80;;;26.10;60.40;;;;;;5207458;28;20053;-60
2021/06/12 12:56:51;;;;;;;14.05;6.13;;;26.10;60.50;;;;;;5197696;28;20048;-58
2021/06/12 12:59:26;;;;;;;15.93;6.32;;;26.20;60.50;;;;;;5218454;28;20279;-60
2021/06/12 13:01:59;;;;;;;11.20;5.88;;;26.30;60.60;;;;;;5211394;28;20048;-58
2021/06/12 13:04:43;;;;;;;13.80;6.10;;;26.20;60.50;;;;;;5204341;28;20051;-61
2021/06/12 13:07:18;;;;;;;12.80;6.32;;;26.20;60.50;;;;;;5207664;28;20519;-58
2021/06/12 13:10:00;;;;;;;10.95;5.82;;;26.20;60.50;;;;;;5198842;28;20040;-59
2021/06/12 13:12:33;;;;;;;12.60;5.70;;;26.20;60.40;;;;;;5205336;28;20041;-60
2021/06/12 13:15:13;;;;;;;16.42;5.68;;;26.20;60.30;;;;;;5211004;28;20051;-58
2021/06/12 13:17:46;;;;;;;13.68;6.18;;;26.20;60.20;;;;;;5210565;28;20045;-60
2021/06/12 13:20:21;;;;;;;10.90;6.03;;;26.20;60.30;;;;;;5206764;28;20067;-56
2021/06/12 13:22:54;;;;;;;10.75;5.88;;;26.20;60.30;;;;;;5207270;28;20998;-59
2021/06/12 13:25:27;;;;;;;13.90;5.75;;;26.10;60.20;;;;;;5199321;28;20700;-59
2021/06/12 13:28:03;;;;;;;10.00;5.78;;;26.10;60.20;;;;;;5203619;28;20041;-59
2021/06/12 13:30:39;;;;;;;8.15;5.53;;;26.10;60.20;;;;;;5202386;28;21065;-62